»·PEaware :: DCM2499 KMFR-KPDX

DCM2499 :: KMFR-KPDX

FLIGHT INFORMATION

Flight Status: Arrived
Operator: DotCom
More flights by this operator :: More flights under this callsign
Pilot: Alec D. (17934)
Aircraft: GATES LEARJET LEARJET 35/36
(LJ35)
More flights by this aircraft type
Origin: KMFR Rogue Valley Intl-Medford
United States
Destination: KPDX Portland Intl
United States
More flights between these airports :: More routes between these airports
Route: +GNATS7 MOURN MOXEE OCITY2
File this flight plan on PilotEdge
Remarks:
Altitude:
(Current/Filed)
24,000ft
Speed:
(Current/Filed)
430kts
Departed: 22-Dec-18 11:55 AM
Arrived: 22-Dec-18 12:36 PM
Distance/Time
Traveled:
193nm/0:41
Distance/Time
To Go:
Arrived

Flight Plot

Page will automatically refresh every two minutes.

Flight plan parsing failed; only flown route is shown


Map Options




Map Legend


Flown Route
Filed Route
Departure Airport
Arrival Airport
Navaid (VOR, NDB)
Fix

Horizontal Profiles

Position Reports

Time Latitude Longitude Heading Altitude Ground
Speed
22-Dec-18 11:34 42.369915 -122.873965 203 1337ft 0kts
22-Dec-18 11:35 42.369915 -122.873965 203 1337ft 0kts
22-Dec-18 11:36 42.369915 -122.873965 203 1337ft 0kts
22-Dec-18 11:37 42.369915 -122.873965 203 1337ft 0kts
22-Dec-18 11:38 42.369915 -122.873965 203 1337ft 0kts
22-Dec-18 11:40 42.369915 -122.873965 203 1337ft 0kts
22-Dec-18 11:41 42.369915 -122.873965 203 1337ft 0kts
22-Dec-18 11:42 42.369915 -122.873965 203 1337ft 0kts
22-Dec-18 11:43 42.369915 -122.873965 203 1337ft 0kts
22-Dec-18 11:44 42.369915 -122.873965 203 1337ft 0kts
22-Dec-18 11:45 42.369915 -122.873965 203 1337ft 0kts
22-Dec-18 11:46 42.369915 -122.873965 203 1337ft 0kts
22-Dec-18 11:47 42.369915 -122.873965 203 1337ft 0kts
22-Dec-18 11:48 42.369915 -122.873965 203 1337ft 0kts
22-Dec-18 11:49 42.369874 -122.874007 232 1338ft 1kts
22-Dec-18 11:50 42.370315 -122.873297 90 1338ft 8kts
22-Dec-18 11:51 42.369061 -122.871192 159 1338ft 5kts
22-Dec-18 11:52 42.367105 -122.870192 158 1338ft 7kts
22-Dec-18 11:53 42.364350 -122.868775 159 1338ft 12kts
22-Dec-18 11:54 42.364333 -122.867711 338 1338ft 18kts
22-Dec-18 11:55 42.400363 -122.893423 311 3234ft 228kts
22-Dec-18 11:56 42.420950 -122.980430 277 8078ft 249kts
22-Dec-18 11:57 42.438518 -123.078412 283 11084ft 264kts
22-Dec-18 11:57 42.458045 -123.159416 283 13880ft 284kts
22-Dec-18 11:59 42.533272 -123.235165 342 18728ft 321kts
22-Dec-18 11:59 42.602787 -123.190015 47 21427ft 371kts
22-Dec-18 12:00 42.665670 -123.064900 50 22240ft 428kts
22-Dec-18 12:02 42.757732 -122.915221 42 22264ft 453kts
22-Dec-18 12:03 42.868586 -122.871342 337 22293ft 421kts
22-Dec-18 12:03 42.949684 -122.940966 319 22246ft 415kts
22-Dec-18 12:04 43.049408 -123.021670 344 22251ft 434kts
22-Dec-18 12:06 43.192358 -122.996296 13 22270ft 457kts
22-Dec-18 12:06 43.291608 -122.944267 13 22271ft 457kts
22-Dec-18 12:07 43.415306 -122.910755 2 22273ft 451kts
22-Dec-18 12:08 43.539789 -122.888539 2 22268ft 452kts
22-Dec-18 12:09 43.664682 -122.863954 3 22259ft 453kts
22-Dec-18 12:10 43.789246 -122.837115 3 22252ft 454kts
22-Dec-18 12:11 43.913837 -122.809084 4 22252ft 454kts
22-Dec-18 12:12 44.038855 -122.780375 4 22250ft 454kts
22-Dec-18 12:13 44.163442 -122.751430 3 22240ft 454kts
22-Dec-18 12:14 44.288477 -122.736520 358 22238ft 450kts
22-Dec-18 12:15 44.408276 -122.727312 358 20276ft 407kts
22-Dec-18 12:16 44.516931 -122.717704 358 17966ft 379kts
22-Dec-18 12:17 44.620302 -122.707674 359 15663ft 367kts
22-Dec-18 12:18 44.721321 -122.697918 0 13366ft 362kts
22-Dec-18 12:19 44.819866 -122.688008 0 12008ft 336kts
22-Dec-18 12:20 44.907530 -122.678762 0 12003ft 300kts
22-Dec-18 12:21 44.988406 -122.670411 359 12002ft 287kts
22-Dec-18 12:22 45.068625 -122.662670 1 10765ft 296kts
22-Dec-18 12:23 45.149912 -122.654583 3 8751ft 285kts
22-Dec-18 12:24 45.227336 -122.646631 4 7075ft 265kts
22-Dec-18 12:25 45.295638 -122.639419 5 7006ft 234kts
22-Dec-18 12:26 45.360994 -122.632507 4 7017ft 243kts
22-Dec-18 12:27 45.429745 -122.625432 5 6093ft 246kts
22-Dec-18 12:28 45.477645 -122.679470 297 4514ft 220kts
22-Dec-18 12:29 45.508682 -122.750702 300 3086ft 205kts
22-Dec-18 12:30 45.558023 -122.762463 19 2011ft 181kts
22-Dec-18 12:31 45.597814 -122.738858 43 1499ft 145kts
22-Dec-18 12:32 45.618272 -122.690729 69 1038ft 124kts
22-Dec-18 12:33 45.614122 -122.643484 126 720ft 119kts
22-Dec-18 12:34 45.598342 -122.604578 124 159ft 107kts
22-Dec-18 12:35 45.590763 -122.585294 115 33ft 9kts
22-Dec-18 12:36 45.589419 -122.583385 207 33ft 0kts
22-Dec-18 12:37 45.589157 -122.583598 210 33ft 7kts
22-Dec-18 12:38 45.587598 -122.583802 200 33ft 10kts

Navigation Log

Ident Type
Flight plan parsing failed, navigation log unavailable